Current Conditions
Clear
Conditions



Pressure
30.18 (inHG) - 1022.02 (mb)
Visibility

10.0 (mimiles) - 16.1 (km)
   Temperature
81  °F
27°C
63  °F
Dewpoint
54  %
 Humidity
   Wind Speed
12  mph
10  kts
19  km/h
5.4  m/s
   Wind Direction
 150°
South South
East
   Airport Data
KMYR
Location Myrtle Beach International mi (0 km)
Metar :KMYR 221856Z 15010KT 10SM CLR 27/17 A3018 RMK AO2 SLP218 T02720167
Sun 22nd September 13:56 pm
   Raw Metar Info
Raw METAR is the most common format in the world for the transmission of observational weather data. It is highly standardized through the International Civil Aviation Organization (ICAO), which allows it to be understood throughout most of the world.
   API Info
Data Provided by
https://www.checkwx.com/weather/
   © Info
CSS/SVG/PHP scripts were developed by weather34.com for use in the weather34 template © 2015-2019

Guide Info provided by Metar-Wikipedia